Tursas — OIUI — position and weather

sailwx.info

Track history (hours):
 
Tides and Currents Weather Stations Pressure Air Temp Water Temp Dewpoint Dewpoint Depression Visibility Wind Speed Wind Dir Waves Ship Positions

Tursas

Last reported at 2017-Nov-10 16:55 UTC. Time now 2017-Nov-20 00:26 UTC.
Position N 60°02' E 021°42'.
Warning: this ship's position is 9 days out of date.

MMSI: 230303000.

Date/timePositionNaut miles runAvg speedWind from/ knotsBaromVisibWave heightAir tempDewpointWater temp
2017-Nov-10 16:55N 60°02' E 021°42'512.7
2017-Nov-10 16:30N 59°57' E 021°40'5 9.9
2017-Nov-10 16:00N 59°52' E 021°41'612.9
2017-Nov-10 15:30N 59°52' E 021°54'3210.6
2017-Nov-10 12:29N 59°47' E 022°57'711.7
2017-Nov-10 11:55N 59°43' E 023°07'512.4
2017-Nov-10 11:31N 59°42' E 023°17'612.4
2017-Nov-10 11:01N 59°43' E 023°29'612.5
2017-Nov-10 10:31N 59°44' E 023°41'1912.5
2017-Nov-10 08:59N 59°49' E 024°18'612.3
2017-Nov-10 08:30N 59°51' E 024°29'612.5
2017-Nov-10 08:00N 59°54' E 024°39'612.4
2017-Nov-10 07:31N 59°58' E 024°49'510.3
2017-Nov-10 07:00N 60°01' E 024°57'612.1
2017-Nov-10 06:30N 60°07' E 024°59'3 6.0
2017-Nov-10 06:01N 60°10' E 024°58'0 0.0
2017-Nov-08 16:28N 60°10' E 024°58'2 3.5
2017-Nov-08 16:00N 60°09' E 024°60'713.1
2017-Nov-08 15:30N 60°02' E 024°58'712.5
2017-Nov-08 14:56N 59°55' E 024°54'713.8
2017-Nov-08 14:24N 59°53' E 024°40'613.9
2017-Nov-08 13:59N 59°51' E 024°29'1913.6
2017-Nov-08 12:36N 59°46' E 023°53'113.7
2017-Nov-08 12:30N 59°46' E 023°51'713.6
2017-Nov-08 12:00N 59°44' E 023°38'713.4
2017-Nov-08 11:30N 59°42' E 023°25'713.4
2017-Nov-08 10:59N 59°42' E 023°11'32 1.7
2017-Nov-07 16:27N 59°53' E 022°11'511.7
2017-Nov-07 16:00N 59°53' E 022°00'611.9
2017-Nov-07 15:30N 59°52' E 021°49'6 9.6
2017-Nov-07 14:56N 59°53' E 021°38'  
2017-Nov-01 23:40N 59°30' E 021°33'  
Track history (hours):
 
Tides and Currents Weather Stations Pressure Air Temp Water Temp Dewpoint Dewpoint Depression Visibility Wind Speed Wind Dir Waves Ship Positions

Tursas

Last reported at 2017-Nov-10 16:55 UTC. Time now 2017-Nov-20 00:26 UTC.
Position N 60°02' E 021°42'.
Warning: this ship's position is 9 days out of date.

MMSI: 230303000.

Date/timePositionNaut miles runAvg speedWind from/ knotsBaromVisibWave heightAir tempDewpointWater temp
2017-Nov-10 16:55N 60°02' E 021°42'512.7
2017-Nov-10 16:30N 59°57' E 021°40'5 9.9
2017-Nov-10 16:00N 59°52' E 021°41'612.9
2017-Nov-10 15:30N 59°52' E 021°54'3210.6
2017-Nov-10 12:29N 59°47' E 022°57'711.7
2017-Nov-10 11:55N 59°43' E 023°07'512.4
2017-Nov-10 11:31N 59°42' E 023°17'612.4
2017-Nov-10 11:01N 59°43' E 023°29'612.5
2017-Nov-10 10:31N 59°44' E 023°41'1912.5
2017-Nov-10 08:59N 59°49' E 024°18'612.3
2017-Nov-10 08:30N 59°51' E 024°29'612.5
2017-Nov-10 08:00N 59°54' E 024°39'612.4
2017-Nov-10 07:31N 59°58' E 024°49'510.3
2017-Nov-10 07:00N 60°01' E 024°57'612.1
2017-Nov-10 06:30N 60°07' E 024°59'3 6.0
2017-Nov-10 06:01N 60°10' E 024°58'0 0.0
2017-Nov-08 16:28N 60°10' E 024°58'2 3.5
2017-Nov-08 16:00N 60°09' E 024°60'713.1
2017-Nov-08 15:30N 60°02' E 024°58'712.5
2017-Nov-08 14:56N 59°55' E 024°54'713.8
2017-Nov-08 14:24N 59°53' E 024°40'613.9
2017-Nov-08 13:59N 59°51' E 024°29'1913.6
2017-Nov-08 12:36N 59°46' E 023°53'113.7
2017-Nov-08 12:30N 59°46' E 023°51'713.6
2017-Nov-08 12:00N 59°44' E 023°38'713.4
2017-Nov-08 11:30N 59°42' E 023°25'713.4
2017-Nov-08 10:59N 59°42' E 023°11'32 1.7
2017-Nov-07 16:27N 59°53' E 022°11'511.7
2017-Nov-07 16:00N 59°53' E 022°00'611.9
2017-Nov-07 15:30N 59°52' E 021°49'6 9.6
2017-Nov-07 14:56N 59°53' E 021°38'  
2017-Nov-01 23:40N 59°30' E 021°33'  

Dump ship's entire track history